Tulnici, România

10:00 AM EEST on iulie 30, 2014 (GMT +0300)
Bacau (LRBC) Elev 607 ft | 46.52 °N, 26.91 °E | Change Station

Current weather conditions updated 30 minutes ago

Clear
Cer senin
73 °F
Feels Like 73 °F
N
0
Vânt variabil Vânt from nord

Today is forecast to be nearly the same temperature as yesterday.

astăzi
High -- | Low -- °F
--% Chance of Precip.
Ieri
High -- | Low -- °F
Precip. -- inch
5:53 AM 8:45 PM
Semilună în creştere, 10% visible
Presiunea 29.95 inch
Vizibilitatea -9999.0 mile
Nori
Punctul de rouă 66 °F
Umiditatea 78%
Precipitaţii 0.00 inch
Adâncimea zăpezii Not available.
UV Not available.
Pollen Not available.
Calitatea aerului Not available.
Flu Activity Not available.
METAR LRBC 300630Z 00000KT CAVOK 23/19 Q1014

More Conditions Fewer Conditions

Presiunea 29.95 inch
Vizibilitatea -9999.0 mile
Nori
Punctul de rouă 66 °F
Umiditatea 78%
Precipitaţii 0.00 inch
Adâncimea zăpezii Not available.
UV Not available.
Pollen Not available.
Calitatea aerului Not available.
Flu Activity Not available.
METAR LRBC 300630Z 00000KT CAVOK 23/19 Q1014

More Conditions Fewer Conditions

10-Day Weather Forecast

Almanac

Astronomie

Jul. 30, 2014 Răsărit Apus
Timpul Actual 5:53 AM EEST 8:45 PM EEST
Crepusculul Civil 5:18 AM EEST 9:20 PM EEST
Crepusculul nautic 4:33 AM EEST 10:04 PM EEST
Răsărit Astronomic 3:41 AM EEST 10:56 PM EEST
Luna 9:20 AM EEST 10:03 PM EEST
Durata zilei lumină 16h 01m
Lungimea zilei
14h 52m
Tomorrow will be 2m 26s shorter.
Semilună în creştere, 10% of the Moon is Illuminated
astăzi
Semilună în creştere
Aug 3
Primul pătrar
Aug 10
Lună plină
Aug 17
Ultimul pătrar
Aug 25
New

Yesterday's Extremes

Country Highs Country Lows

Community

WunderPhotos

Upload Photos

1,739,022 photos uploaded!

WunderBlogs® & News

By Dr. Jeff Masters
Director of Meteorology, Weather Underground
By Kari Strenfel
Meteorologist, Weather Underground
By Christopher C. Burt
Weather Historian, Weather Underground
July 29, 2014
July 29, 2014
July 29, 2014

Nearby

Calitatea aerului

Not available.

Adâncimea zapezii

Not available.

Earthquake Activity

Oraş Distance Mag. Time & Date
No recent earthquake activity has been reported nearby.
Minimum magnitude displayed is 2.5.

Coastal Water Temperatures

Locul Temperatura
No Stations Reporting

Nearby Weather Stations

There are no personal weather stations in this area.